Time;durP1;ratioP1;P1;durP2;ratioP2;P2;SDS_P1;SDS_P2;PMS_P1;PMS_P2;Temp;Humidity;BMP_temperature;BMP_pressure;BME280_temperature;BME280_humidity;BME280_pressure;Samples;Min_cycle;Max_cycle;Signal;HPM_P1;HPM_P2
2024/01/29 00:00:16;;;;;;;3.27;2.30;;;9.10;99.90;;;;;;5072763;28;20172;-75
2024/01/29 00:02:44;;;;;;;3.83;2.47;;;9.00;99.90;;;;;;5056966;28;20187;-75
2024/01/29 00:05:10;;;;;;;3.92;2.67;;;9.00;99.90;;;;;;5093341;28;20621;-75
2024/01/29 00:07:36;;;;;;;5.90;2.73;;;9.00;99.90;;;;;;5073802;28;20179;-75
2024/01/29 00:10:02;;;;;;;2.87;2.07;;;9.00;99.90;;;;;;5056739;28;20646;-75
2024/01/29 00:12:28;;;;;;;5.40;2.28;;;9.00;99.90;;;;;;5072888;28;20665;-75
2024/01/29 00:14:53;;;;;;;4.40;2.77;;;9.00;99.90;;;;;;5053356;28;20196;-75
2024/01/29 00:17:19;;;;;;;6.73;2.40;;;9.00;99.90;;;;;;5072342;28;20788;-75
2024/01/29 00:19:45;;;;;;;4.30;2.60;;;9.00;99.90;;;;;;5069969;28;20191;-75
2024/01/29 00:22:11;;;;;;;4.00;2.13;;;9.00;99.90;;;;;;5072750;28;20182;-74
2024/01/29 00:24:36;;;;;;;3.40;1.70;;;9.00;99.90;;;;;;5072910;28;20654;-74
2024/01/29 00:27:02;;;;;;;4.00;2.60;;;9.00;99.90;;;;;;5090394;28;20179;-74
2024/01/29 00:29:27;;;;;;;3.20;2.20;;;9.00;99.90;;;;;;5091111;28;20187;-75
2024/01/29 00:31:53;;;;;;;3.50;2.87;;;9.00;99.90;;;;;;5091232;28;20290;-75
2024/01/29 00:34:20;;;;;;;4.77;2.27;;;9.10;99.90;;;;;;5072761;28;20715;-75
2024/01/29 00:36:46;;;;;;;3.33;2.20;;;9.10;99.90;;;;;;5090492;28;20167;-75
2024/01/29 00:39:13;;;;;;;4.90;2.00;;;9.00;99.90;;;;;;5053103;28;20172;-75
2024/01/29 00:41:38;;;;;;;3.83;2.20;;;9.00;99.90;;;;;;5093299;28;20588;-75
2024/01/29 00:44:04;;;;;;;6.37;2.90;;;9.00;99.90;;;;;;5090960;28;20203;-75
2024/01/29 00:46:31;;;;;;;3.67;2.87;;;9.00;99.90;;;;;;5054847;28;20216;-75
2024/01/29 00:48:56;;;;;;;5.78;3.22;;;9.00;99.90;;;;;;5069479;28;20579;-75
2024/01/29 00:51:22;;;;;;;4.97;2.53;;;9.00;99.90;;;;;;5071054;28;20691;-75
2024/01/29 00:53:48;;;;;;;3.23;2.03;;;9.00;99.90;;;;;;5069173;28;20215;-75
2024/01/29 00:56:14;;;;;;;4.87;2.17;;;9.00;99.90;;;;;;5069508;28;20187;-75
2024/01/29 00:58:44;;;;;;;4.32;2.53;;;9.00;99.90;;;;;;5052123;28;20176;-75
2024/01/29 01:01:11;;;;;;;2.90;2.00;;;9.00;99.90;;;;;;5072437;28;20926;-74
2024/01/29 01:03:36;;;;;;;3.85;1.77;;;9.00;99.90;;;;;;5069225;28;20210;-74
2024/01/29 01:06:02;;;;;;;3.80;2.20;;;9.00;99.90;;;;;;5072636;28;20252;-76
2024/01/29 01:08:28;;;;;;;2.87;2.20;;;9.00;99.90;;;;;;5055280;28;20720;-75
2024/01/29 01:10:54;;;;;;;5.07;2.70;;;9.00;99.90;;;;;;5090693;28;20214;-75
2024/01/29 01:13:20;;;;;;;3.60;2.42;;;9.00;99.90;;;;;;5053468;28;20219;-75
2024/01/29 01:15:46;;;;;;;5.20;3.30;;;9.00;99.90;;;;;;5068899;28;20165;-75
2024/01/29 01:18:11;;;;;;;4.33;2.20;;;9.00;99.90;;;;;;5058414;28;20645;-75
2024/01/29 01:20:37;;;;;;;3.53;2.10;;;9.00;99.90;;;;;;5072302;28;20633;-75
2024/01/29 01:23:03;;;;;;;3.97;2.30;;;9.00;99.90;;;;;;5069185;28;20216;-75
2024/01/29 01:25:29;;;;;;;7.00;2.33;;;9.00;99.90;;;;;;5089259;28;20291;-74
2024/01/29 01:27:54;;;;;;;3.27;1.97;;;9.00;99.90;;;;;;5089745;28;20951;-75
2024/01/29 01:30:21;;;;;;;4.67;2.33;;;9.00;99.90;;;;;;5069836;28;20177;-75
2024/01/29 01:32:47;;;;;;;3.33;2.45;;;9.00;99.90;;;;;;5090438;28;20199;-75
2024/01/29 01:35:12;;;;;;;3.47;1.77;;;9.00;99.90;;;;;;5090152;28;20574;-75
2024/01/29 01:37:38;;;;;;;3.80;1.90;;;9.00;99.90;;;;;;5051540;28;20578;-75
2024/01/29 01:40:05;;;;;;;3.60;2.00;;;9.00;99.90;;;;;;5085706;28;20590;-76
2024/01/29 01:42:30;;;;;;;2.72;2.00;;;9.00;99.90;;;;;;5064672;28;20275;-75
2024/01/29 01:44:56;;;;;;;3.47;2.10;;;9.00;99.90;;;;;;5094170;28;20283;-75
2024/01/29 01:47:22;;;;;;;3.63;2.43;;;9.00;99.90;;;;;;5093705;28;20589;-75
2024/01/29 01:49:48;;;;;;;3.28;2.50;;;9.00;99.90;;;;;;5094262;28;20203;-75
2024/01/29 01:52:16;;;;;;;4.70;2.10;;;9.00;99.90;;;;;;5072773;28;21437;-75
2024/01/29 01:54:43;;;;;;;3.63;2.33;;;9.00;99.90;;;;;;5096596;28;20238;-74
2024/01/29 01:57:09;;;;;;;4.07;2.30;;;9.00;99.90;;;;;;5072982;28;20168;-75
2024/01/29 01:59:38;;;;;;;4.78;2.03;;;9.00;99.90;;;;;;5093371;28;20548;-75
2024/01/29 02:02:04;;;;;;;3.42;1.77;;;9.00;99.90;;;;;;5072470;28;20187;-75
2024/01/29 02:04:30;;;;;;;3.15;2.10;;;9.00;99.90;;;;;;5058796;28;20195;-75
2024/01/29 02:06:56;;;;;;;4.20;1.80;;;9.00;99.90;;;;;;5093357;28;20176;-75
2024/01/29 02:09:22;;;;;;;6.82;2.75;;;9.00;99.90;;;;;;5056616;28;20206;-75
2024/01/29 02:11:47;;;;;;;3.63;2.17;;;9.00;99.90;;;;;;5072197;28;20231;-75
2024/01/29 02:14:15;;;;;;;3.97;1.85;;;9.00;99.90;;;;;;5071903;28;20668;-75
2024/01/29 02:16:40;;;;;;;3.37;2.03;;;9.00;99.90;;;;;;5071494;28;20192;-74
2024/01/29 02:19:16;;;;;;;3.30;2.00;;;9.00;99.90;;;;;;5071985;28;20649;-75
2024/01/29 02:21:42;;;;;;;4.90;2.20;;;9.00;99.90;;;;;;5071832;28;20175;-75
2024/01/29 02:24:08;;;;;;;3.65;2.10;;;9.00;99.90;;;;;;5075159;28;20196;-75
2024/01/29 02:26:33;;;;;;;3.90;2.20;;;9.00;99.90;;;;;;5073837;28;20184;-75
2024/01/29 02:28:59;;;;;;;4.10;1.93;;;9.00;99.90;;;;;;5071736;28;20599;-75
2024/01/29 02:31:25;;;;;;;4.17;2.77;;;9.00;99.90;;;;;;5073297;28;20164;-75
2024/01/29 02:33:50;;;;;;;3.77;1.73;;;9.00;99.90;;;;;;5075827;28;20211;-75
2024/01/29 02:36:16;;;;;;;4.50;2.40;;;8.90;99.90;;;;;;5071818;28;20180;-75
2024/01/29 02:38:42;;;;;;;4.10;1.30;;;8.90;99.90;;;;;;5091395;28;20172;-75
2024/01/29 02:41:09;;;;;;;3.20;1.97;;;8.90;99.90;;;;;;5093466;28;20186;-75
2024/01/29 02:43:35;;;;;;;4.30;2.10;;;8.90;99.90;;;;;;5093036;28;20589;-75
2024/01/29 02:46:00;;;;;;;4.90;2.10;;;8.90;99.90;;;;;;5088454;28;20172;-75
2024/01/29 02:48:26;;;;;;;3.30;2.13;;;8.90;99.90;;;;;;5090615;28;20695;-75
2024/01/29 02:50:52;;;;;;;3.70;1.50;;;8.80;99.90;;;;;;5074994;28;20214;-74
2024/01/29 02:53:18;;;;;;;2.87;1.50;;;8.90;99.90;;;;;;5057901;28;20644;-75
2024/01/29 02:55:44;;;;;;;3.53;2.00;;;8.90;99.90;;;;;;5087112;28;20626;-75
2024/01/29 02:58:09;;;;;;;3.90;2.20;;;8.80;99.90;;;;;;5070712;28;20263;-74
2024/01/29 03:00:35;;;;;;;2.83;2.03;;;8.80;99.90;;;;;;5071301;28;20792;-75
2024/01/29 03:03:01;;;;;;;3.40;1.80;;;8.80;99.90;;;;;;5065864;28;20582;-75
2024/01/29 03:05:27;;;;;;;3.40;2.33;;;8.80;99.90;;;;;;5072692;28;20223;-75
2024/01/29 03:07:52;;;;;;;4.20;1.80;;;8.90;99.90;;;;;;5054077;28;20233;-75
2024/01/29 03:10:18;;;;;;;2.93;1.90;;;8.80;99.90;;;;;;5075704;28;20176;-75
2024/01/29 03:12:44;;;;;;;2.60;1.37;;;8.80;99.90;;;;;;5071052;28;20981;-75
2024/01/29 03:15:09;;;;;;;3.20;1.97;;;8.90;99.90;;;;;;5072992;28;20219;-76
2024/01/29 03:17:35;;;;;;;4.47;1.50;;;8.90;99.90;;;;;;5067868;28;20551;-75
2024/01/29 03:20:02;;;;;;;3.40;2.23;;;8.80;99.90;;;;;;5071012;28;20669;-75
2024/01/29 03:22:28;;;;;;;4.55;2.50;;;8.80;99.90;;;;;;5072296;28;20204;-74
2024/01/29 03:24:53;;;;;;;3.40;1.90;;;8.80;99.90;;;;;;5070953;28;20231;-75
2024/01/29 03:27:19;;;;;;;4.03;1.97;;;8.80;99.90;;;;;;5056531;28;20175;-75
2024/01/29 03:29:45;;;;;;;4.67;3.37;;;8.70;99.90;;;;;;5037550;28;20559;-75
2024/01/29 03:32:11;;;;;;;2.87;1.60;;;8.70;99.90;;;;;;5087906;28;20205;-75
2024/01/29 03:34:41;;;;;;;3.47;2.13;;;8.70;99.90;;;;;;5073164;28;20200;-75
2024/01/29 03:37:07;;;;;;;3.33;1.80;;;8.70;99.90;;;;;;5091603;28;20228;-75
2024/01/29 03:39:33;;;;;;;2.60;1.80;;;8.70;99.90;;;;;;5074002;28;20175;-75
2024/01/29 03:41:58;;;;;;;2.93;2.30;;;8.60;99.90;;;;;;5070536;28;20207;-75
2024/01/29 03:44:24;;;;;;;4.50;2.60;;;8.60;99.90;;;;;;5089283;28;20195;-75
2024/01/29 03:46:49;;;;;;;4.43;1.90;;;8.60;99.90;;;;;;5075833;28;20194;-75
2024/01/29 03:49:15;;;;;;;4.80;2.60;;;8.50;99.90;;;;;;5073830;28;20669;-75
2024/01/29 03:51:41;;;;;;;3.40;2.50;;;8.50;99.90;;;;;;5073301;28;20633;-75
2024/01/29 03:54:06;;;;;;;3.90;2.27;;;8.50;99.90;;;;;;5070136;28;20204;-75
2024/01/29 03:56:32;;;;;;;3.50;2.33;;;8.50;99.90;;;;;;5071191;28;20176;-75
2024/01/29 03:58:58;;;;;;;8.73;2.97;;;8.50;99.90;;;;;;5057082;28;20207;-75
2024/01/29 04:01:27;;;;;;;3.50;2.67;;;8.50;99.90;;;;;;5054207;28;20172;-75
2024/01/29 04:03:53;;;;;;;4.25;2.10;;;8.40;99.90;;;;;;5073951;28;20199;-76
2024/01/29 04:06:19;;;;;;;5.40;2.50;;;8.50;99.90;;;;;;5091590;28;20171;-75
2024/01/29 04:08:45;;;;;;;6.17;3.00;;;8.40;99.90;;;;;;5091299;28;20627;-75
2024/01/29 04:11:10;;;;;;;3.90;2.20;;;8.40;99.90;;;;;;5040271;28;20166;-75
2024/01/29 04:13:36;;;;;;;4.90;2.50;;;8.40;99.90;;;;;;5072166;28;20538;-75
2024/01/29 04:16:02;;;;;;;4.57;2.87;;;8.40;99.90;;;;;;5053943;28;20555;-75
2024/01/29 04:18:27;;;;;;;6.00;2.90;;;8.30;99.90;;;;;;5088316;28;20184;-75
2024/01/29 04:20:53;;;;;;;3.13;2.13;;;8.40;99.90;;;;;;5091263;28;20175;-75
2024/01/29 04:23:19;;;;;;;6.33;3.20;;;8.40;99.90;;;;;;5073814;28;20203;-75
2024/01/29 04:25:44;;;;;;;4.60;2.70;;;8.40;99.90;;;;;;5092981;28;20676;-75
2024/01/29 04:28:10;;;;;;;3.43;2.27;;;8.40;99.90;;;;;;5069214;28;20177;-75
2024/01/29 04:30:36;;;;;;;5.47;2.70;;;8.40;99.90;;;;;;5089655;28;20184;-75
2024/01/29 04:33:02;;;;;;;4.50;2.70;;;8.30;99.90;;;;;;5069559;28;20251;-75
2024/01/29 04:35:28;;;;;;;4.77;3.20;;;8.30;99.90;;;;;;5070208;28;20622;-75
2024/01/29 04:37:53;;;;;;;3.57;2.53;;;8.30;99.90;;;;;;5068994;28;20732;-75
2024/01/29 04:40:22;;;;;;;4.43;2.13;;;8.30;99.90;;;;;;5069547;28;20164;-75
2024/01/29 04:42:48;;;;;;;3.85;2.55;;;8.30;99.90;;;;;;5065034;28;20233;-75
2024/01/29 04:45:14;;;;;;;4.50;2.95;;;8.30;99.90;;;;;;5069928;28;20192;-75
2024/01/29 04:47:40;;;;;;;3.67;2.57;;;8.30;99.90;;;;;;5070922;28;20198;-75
2024/01/29 04:50:06;;;;;;;3.40;1.83;;;8.20;99.90;;;;;;5052510;28;20204;-75
2024/01/29 04:52:31;;;;;;;3.90;2.33;;;8.30;99.90;;;;;;5069977;28;20214;-75
2024/01/29 04:54:57;;;;;;;4.97;2.73;;;8.30;99.90;;;;;;5069276;28;20736;-74
2024/01/29 04:57:23;;;;;;;4.17;2.43;;;8.20;99.90;;;;;;5055558;28;20175;-75
2024/01/29 04:59:48;;;;;;;4.97;2.90;;;8.20;99.90;;;;;;5044185;28;20188;-74
2024/01/29 05:02:16;;;;;;;3.17;2.20;;;8.20;99.90;;;;;;5090068;28;20544;-74
2024/01/29 05:04:41;;;;;;;5.57;2.00;;;8.20;99.90;;;;;;5090473;28;20298;-75
2024/01/29 05:07:07;;;;;;;4.83;3.40;;;8.20;99.90;;;;;;5068452;28;20282;-75
2024/01/29 05:09:33;;;;;;;4.27;2.73;;;8.20;99.90;;;;;;5055816;28;20183;-75
2024/01/29 05:11:58;;;;;;;3.80;2.60;;;8.20;99.90;;;;;;5069040;28;20294;-74
2024/01/29 05:14:27;;;;;;;4.40;2.80;;;8.20;99.90;;;;;;5087081;28;20294;-75
2024/01/29 05:16:52;;;;;;;5.95;2.20;;;8.10;99.90;;;;;;5089351;28;20180;-74
2024/01/29 05:19:19;;;;;;;4.17;2.60;;;8.20;99.90;;;;;;5068644;28;20579;-75
2024/01/29 05:21:45;;;;;;;3.00;2.25;;;8.10;99.90;;;;;;5071937;28;21203;-75
2024/01/29 05:24:11;;;;;;;4.87;3.30;;;8.10;99.90;;;;;;5069164;28;20294;-75
2024/01/29 05:26:36;;;;;;;4.57;2.83;;;8.10;99.90;;;;;;5079247;28;20173;-75
2024/01/29 05:29:02;;;;;;;3.83;2.40;;;8.10;99.90;;;;;;5068896;28;20180;-75
2024/01/29 05:31:28;;;;;;;4.97;2.70;;;8.10;99.90;;;;;;5087187;28;20180;-75
2024/01/29 05:33:53;;;;;;;4.47;2.60;;;8.10;99.90;;;;;;5090126;28;20293;-75
2024/01/29 05:36:19;;;;;;;5.80;2.10;;;8.10;99.90;;;;;;5090091;28;20178;-75
2024/01/29 05:38:45;;;;;;;5.43;2.97;;;8.10;99.90;;;;;;5073373;28;20582;-75
2024/01/29 05:41:10;;;;;;;3.80;2.67;;;8.00;99.90;;;;;;5072405;28;20167;-75
2024/01/29 05:43:36;;;;;;;4.27;2.40;;;8.00;99.90;;;;;;5072073;28;20175;-74
2024/01/29 05:46:02;;;;;;;6.77;2.77;;;8.00;99.90;;;;;;5068773;28;20175;-75
2024/01/29 05:48:27;;;;;;;5.07;2.43;;;8.00;99.90;;;;;;5086343;28;20198;-75
2024/01/29 05:50:53;;;;;;;3.90;2.73;;;8.00;99.90;;;;;;5068423;28;20179;-74
2024/01/29 05:53:20;;;;;;;6.20;3.63;;;7.90;99.90;;;;;;5052131;28;20246;-75
2024/01/29 05:55:46;;;;;;;4.13;3.00;;;7.90;99.90;;;;;;5038715;28;20203;-75
2024/01/29 05:58:12;;;;;;;4.25;2.55;;;7.90;99.90;;;;;;5089780;28;20197;-75
2024/01/29 06:00:38;;;;;;;4.40;2.73;;;7.90;99.90;;;;;;5055455;28;20172;-75
2024/01/29 06:03:04;;;;;;;4.03;2.53;;;7.90;99.90;;;;;;5069022;28;20616;-75
2024/01/29 06:05:29;;;;;;;4.00;2.63;;;7.90;99.90;;;;;;5068383;28;20668;-75
2024/01/29 06:07:55;;;;;;;6.17;3.63;;;7.90;99.90;;;;;;5090239;28;20179;-75
2024/01/29 06:10:21;;;;;;;5.90;4.00;;;7.90;99.90;;;;;;5072043;28;20183;-76
2024/01/29 06:12:47;;;;;;;5.13;4.03;;;7.80;99.90;;;;;;5071752;28;21196;-75
2024/01/29 06:15:13;;;;;;;4.33;2.80;;;7.80;99.90;;;;;;5070597;28;20658;-75
2024/01/29 06:17:40;;;;;;;6.70;3.50;;;7.80;99.90;;;;;;5087847;28;20577;-75
2024/01/29 06:20:06;;;;;;;4.47;2.75;;;7.80;99.90;;;;;;5051376;28;20221;-74
2024/01/29 06:22:32;;;;;;;3.50;3.20;;;7.80;99.90;;;;;;5054716;28;20184;-75
2024/01/29 06:24:58;;;;;;;6.60;3.65;;;7.80;99.90;;;;;;5068496;28;20714;-75
2024/01/29 06:27:24;;;;;;;5.53;3.23;;;7.70;99.90;;;;;;5085386;28;20191;-74
2024/01/29 06:29:50;;;;;;;4.53;3.20;;;7.70;99.90;;;;;;5074298;28;20578;-74
2024/01/29 06:32:16;;;;;;;4.40;2.93;;;7.70;99.90;;;;;;5075392;28;20199;-75
2024/01/29 06:34:42;;;;;;;7.23;4.37;;;7.70;99.90;;;;;;5073298;28;20200;-74
2024/01/29 06:37:07;;;;;;;5.50;3.15;;;7.70;99.90;;;;;;5060921;28;20184;-74
2024/01/29 06:39:33;;;;;;;5.33;2.80;;;7.70;99.90;;;;;;5069278;28;20180;-75
2024/01/29 06:41:59;;;;;;;3.80;2.70;;;7.70;99.90;;;;;;5093618;28;20589;-74
2024/01/29 06:44:25;;;;;;;4.28;3.15;;;7.70;99.90;;;;;;5058456;28;20272;-74
2024/01/29 06:46:51;;;;;;;4.00;3.17;;;7.70;99.90;;;;;;5057399;28;20591;-75
2024/01/29 06:49:30;;;;;;;4.17;3.30;;;7.70;99.90;;;;;;5043490;28;20242;-73
2024/01/29 06:51:56;;;;;;;5.55;4.00;;;7.60;99.90;;;;;;5075535;28;20179;-75
2024/01/29 06:54:22;;;;;;;6.57;4.00;;;7.70;99.90;;;;;;5079354;28;20207;-75
2024/01/29 06:56:48;;;;;;;5.93;3.23;;;7.70;99.90;;;;;;5072482;28;20168;-74
2024/01/29 06:59:14;;;;;;;5.80;5.07;;;7.60;99.90;;;;;;5090683;22;21228;-74
2024/01/29 07:01:40;;;;;;;4.85;3.35;;;7.60;99.90;;;;;;5039805;28;20221;-73
2024/01/29 07:04:06;;;;;;;3.83;3.03;;;7.70;99.90;;;;;;5075172;28;20225;-73
2024/01/29 07:06:31;;;;;;;5.40;3.73;;;7.60;99.90;;;;;;5058124;28;20187;-74
2024/01/29 07:08:57;;;;;;;5.97;4.07;;;7.60;99.90;;;;;;5054410;28;20226;-74
2024/01/29 07:11:23;;;;;;;8.60;4.10;;;7.60;99.90;;;;;;5039186;28;20165;-74
2024/01/29 07:13:49;;;;;;;5.65;3.92;;;7.60;99.90;;;;;;5053870;28;20277;-74
2024/01/29 07:16:15;;;;;;;6.90;4.10;;;7.60;99.90;;;;;;5062972;28;20204;-73
2024/01/29 07:18:42;;;;;;;4.57;4.00;;;7.60;99.90;;;;;;5063624;28;20204;-73
2024/01/29 07:21:11;;;;;;;8.88;3.97;;;7.60;99.90;;;;;;5067641;28;20180;-73
2024/01/29 07:23:36;;;;;;;9.25;4.10;;;7.60;99.90;;;;;;5061569;28;20711;-74
2024/01/29 07:26:02;;;;;;;5.97;4.10;;;7.60;99.90;;;;;;5046297;28;20177;-73
2024/01/29 07:28:28;;;;;;;6.60;3.47;;;7.60;99.90;;;;;;5037723;28;20274;-72
2024/01/29 07:30:54;;;;;;;6.45;3.85;;;7.60;99.90;;;;;;5054531;28;20172;-74
2024/01/29 07:33:20;;;;;;;6.20;3.60;;;7.60;99.90;;;;;;5064214;28;20211;-73
2024/01/29 07:35:46;;;;;;;5.82;4.10;;;7.70;99.90;;;;;;5037628;28;20179;-73
2024/01/29 07:38:11;;;;;;;4.33;2.83;;;7.70;99.90;;;;;;5046107;28;20545;-73
2024/01/29 07:40:37;;;;;;;5.60;3.60;;;7.70;99.90;;;;;;5045058;28;20615;-73
2024/01/29 07:43:03;;;;;;;5.83;4.30;;;7.70;99.90;;;;;;5054390;28;20630;-73
2024/01/29 07:45:29;;;;;;;5.18;3.47;;;7.70;99.90;;;;;;5072480;28;20581;-74
2024/01/29 07:47:55;;;;;;;5.45;3.15;;;7.70;99.90;;;;;;5053845;28;20169;-74
2024/01/29 07:50:21;;;;;;;4.57;3.40;;;7.70;99.90;;;;;;5072100;28;20184;-73
2024/01/29 07:52:47;;;;;;;9.43;4.57;;;7.70;99.90;;;;;;5035994;28;20208;-73
2024/01/29 07:55:12;;;;;;;4.70;3.80;;;7.70;99.90;;;;;;5052172;28;20599;-74
2024/01/29 07:57:39;;;;;;;5.70;3.60;;;7.80;99.90;;;;;;5033457;28;20224;-73
2024/01/29 08:00:05;;;;;;;4.73;3.90;;;7.80;99.90;;;;;;5052353;28;20228;-74
2024/01/29 08:02:32;;;;;;;4.95;3.30;;;7.80;99.90;;;;;;5050029;28;20229;-74
2024/01/29 08:04:58;;;;;;;5.67;4.37;;;7.80;99.90;;;;;;5068438;28;20179;-74
2024/01/29 08:07:24;;;;;;;6.83;5.10;;;7.80;99.90;;;;;;5057928;28;20575;-74
2024/01/29 08:09:49;;;;;;;7.18;4.20;;;7.90;99.90;;;;;;5050415;28;20216;-74
2024/01/29 08:12:15;;;;;;;5.60;3.67;;;7.90;99.90;;;;;;5051822;28;20192;-74
2024/01/29 08:14:41;;;;;;;5.80;3.93;;;7.90;99.90;;;;;;5054010;28;20188;-74
2024/01/29 08:17:07;;;;;;;5.87;4.50;;;7.90;99.90;;;;;;5058762;28;20204;-75
2024/01/29 08:19:32;;;;;;;5.10;3.93;;;7.90;99.90;;;;;;5059544;28;20200;-73
2024/01/29 08:21:58;;;;;;;7.40;4.47;;;8.00;99.90;;;;;;5053385;28;20212;-74
2024/01/29 08:24:25;;;;;;;5.90;4.33;;;8.00;99.90;;;;;;5075532;28;20712;-74
2024/01/29 08:26:51;;;;;;;6.78;3.85;;;8.00;99.90;;;;;;5054733;28;20172;-74
2024/01/29 08:29:16;;;;;;;5.30;3.87;;;8.10;99.90;;;;;;5047639;28;20709;-75
2024/01/29 08:31:42;;;;;;;7.63;3.90;;;8.10;99.90;;;;;;5070869;28;20176;-74
2024/01/29 08:34:08;;;;;;;9.33;5.17;;;8.20;99.90;;;;;;5071019;28;20212;-73
2024/01/29 08:36:34;;;;;;;6.17;4.03;;;8.10;99.90;;;;;;5053721;28;20255;-74
2024/01/29 08:38:59;;;;;;;5.63;4.17;;;8.20;99.90;;;;;;5057532;28;20204;-75
2024/01/29 08:41:25;;;;;;;4.30;3.47;;;8.30;99.90;;;;;;5053333;28;20606;-75
2024/01/29 08:43:51;;;;;;;9.10;3.90;;;8.30;99.90;;;;;;5047634;28;20637;-75
2024/01/29 08:46:16;;;;;;;5.13;4.17;;;8.40;99.90;;;;;;5053088;28;20196;-75
2024/01/29 08:48:42;;;;;;;7.47;5.07;;;8.50;99.90;;;;;;5070668;28;20179;-74
2024/01/29 08:51:08;;;;;;;5.27;3.90;;;8.50;99.90;;;;;;5070942;28;20255;-73
2024/01/29 08:53:35;;;;;;;4.97;4.17;;;8.50;99.90;;;;;;5068575;28;20638;-74
2024/01/29 08:56:00;;;;;;;6.35;3.95;;;8.60;99.90;;;;;;5070798;28;20613;-74
2024/01/29 08:58:26;;;;;;;6.00;4.60;;;8.60;99.90;;;;;;5069280;28;20208;-74
2024/01/29 09:00:54;;;;;;;6.93;4.50;;;8.70;99.90;;;;;;5070335;28;20713;-75
2024/01/29 09:03:20;;;;;;;7.88;4.95;;;8.80;99.90;;;;;;5052695;28;20172;-74
2024/01/29 09:05:47;;;;;;;7.10;5.28;;;8.80;99.90;;;;;;5069872;28;20180;-75
2024/01/29 09:08:14;;;;;;;6.03;5.05;;;8.80;99.90;;;;;;5063499;28;20565;-75
2024/01/29 09:10:40;;;;;;;5.95;4.50;;;8.90;99.90;;;;;;5049128;28;20283;-74
2024/01/29 09:13:06;;;;;;;7.35;4.20;;;9.00;99.90;;;;;;5036669;28;20184;-74
2024/01/29 09:15:32;;;;;;;5.82;4.65;;;9.00;99.90;;;;;;5055748;28;20223;-75
2024/01/29 09:17:58;;;;;;;8.13;6.20;;;9.10;99.90;;;;;;5048601;28;20258;-75
2024/01/29 09:20:27;;;;;;;6.70;3.77;;;9.20;99.90;;;;;;5064923;28;20227;-74
2024/01/29 09:22:53;;;;;;;11.27;4.85;;;9.20;99.90;;;;;;5050668;28;20621;-74
2024/01/29 09:25:19;;;;;;;8.03;5.73;;;9.30;99.90;;;;;;5045867;28;20242;-74
2024/01/29 09:27:45;;;;;;;5.93;4.37;;;9.40;99.90;;;;;;5062044;28;21310;-74
2024/01/29 09:30:11;;;;;;;7.33;4.97;;;9.40;99.90;;;;;;5056687;28;20201;-75
2024/01/29 09:32:36;;;;;;;6.45;3.92;;;9.40;99.90;;;;;;5058158;28;20207;-74
2024/01/29 09:35:02;;;;;;;6.00;4.40;;;9.50;99.90;;;;;;5052295;28;20185;-74
2024/01/29 09:37:28;;;;;;;6.75;4.63;;;9.60;99.90;;;;;;5070561;28;20600;-74
2024/01/29 09:39:54;;;;;;;8.13;4.90;;;9.70;99.90;;;;;;5049095;28;20188;-75
2024/01/29 09:42:20;;;;;;;8.10;4.20;;;9.80;99.90;;;;;;5049131;28;20215;-75
2024/01/29 09:44:50;;;;;;;6.75;5.25;;;9.90;99.90;;;;;;5051809;28;20212;-75
2024/01/29 09:47:18;;;;;;;7.35;4.20;;;9.90;99.90;;;;;;5063408;28;20176;-74
2024/01/29 09:49:44;;;;;;;5.50;4.32;;;10.00;99.90;;;;;;5052175;28;20188;-74
2024/01/29 09:52:14;;;;;;;8.37;4.57;;;10.10;99.90;;;;;;5069252;28;20725;-74
2024/01/29 09:54:40;;;;;;;5.85;3.90;;;10.20;99.90;;;;;;5070639;28;20612;-75
2024/01/29 09:57:12;;;;;;;8.45;5.47;;;10.30;99.90;;;;;;5052025;28;20211;-75
2024/01/29 09:59:41;;;;;;;6.82;5.63;;;10.30;99.90;;;;;;5048504;28;20212;-74
2024/01/29 10:02:09;;;;;;;5.63;3.95;;;10.40;99.90;;;;;;5053570;28;20189;-74
2024/01/29 10:04:35;;;;;;;5.10;4.28;;;10.40;99.90;;;;;;5054709;28;20255;-74
2024/01/29 10:07:00;;;;;;;6.60;4.60;;;10.50;99.90;;;;;;5056262;28;20192;-74
2024/01/29 10:09:29;;;;;;;6.38;4.43;;;10.60;99.90;;;;;;5059689;28;20647;-75
2024/01/29 10:11:55;;;;;;;6.30;4.50;;;10.70;99.90;;;;;;5036334;28;20275;-74
2024/01/29 10:14:20;;;;;;;6.83;5.33;;;10.80;99.90;;;;;;5036187;28;20268;-74
2024/01/29 10:16:48;;;;;;;8.57;4.63;;;10.90;99.90;;;;;;5054223;28;20571;-74
2024/01/29 10:19:14;;;;;;;8.85;4.80;;;11.00;99.90;;;;;;5048292;28;20219;-74
2024/01/29 10:21:43;;;;;;;7.20;4.43;;;11.00;99.90;;;;;;5073972;28;20200;-74
2024/01/29 10:24:16;;;;;;;7.70;4.72;;;11.10;99.90;;;;;;5061979;28;20587;-74
2024/01/29 10:26:43;;;;;;;4.82;4.20;;;11.20;99.90;;;;;;5053989;28;20857;-75
2024/01/29 10:29:10;;;;;;;5.47;4.55;;;11.30;99.90;;;;;;5035838;28;20188;-74
2024/01/29 10:31:37;;;;;;;6.72;4.90;;;11.40;99.90;;;;;;5035969;28;20208;-75
2024/01/29 10:34:04;;;;;;;6.60;4.75;;;11.50;99.90;;;;;;5053575;28;20223;-74
2024/01/29 10:36:29;;;;;;;6.75;4.10;;;11.60;99.90;;;;;;5035688;28;20176;-74
2024/01/29 10:39:03;;;;;;;6.07;4.33;;;11.70;99.90;;;;;;5053330;28;20264;-75
2024/01/29 10:41:32;;;;;;;5.57;4.00;;;11.80;99.90;;;;;;5052260;28;20687;-74
2024/01/29 10:44:02;;;;;;;4.43;3.75;;;11.90;99.90;;;;;;5054227;28;20183;-74
2024/01/29 10:46:32;;;;;;;5.43;4.05;;;12.00;99.90;;;;;;5055599;28;20177;-75
2024/01/29 10:49:00;;;;;;;6.53;4.37;;;12.10;99.90;;;;;;5073196;28;20191;-74
2024/01/29 10:51:26;;;;;;;7.10;4.80;;;12.20;99.90;;;;;;5073448;28;20562;-74
2024/01/29 10:53:53;;;;;;;5.97;4.27;;;12.20;99.90;;;;;;5071964;28;20666;-74
2024/01/29 10:56:21;;;;;;;5.63;4.78;;;12.30;99.90;;;;;;5054700;28;20607;-74
2024/01/29 10:58:52;;;;;;;10.10;5.72;;;12.40;99.90;;;;;;5072881;28;20176;-75
2024/01/29 11:01:18;;;;;;;7.30;5.00;;;12.50;99.90;;;;;;5055327;28;20184;-74
2024/01/29 11:03:45;;;;;;;4.63;3.97;;;12.50;99.90;;;;;;5073089;28;20569;-74
2024/01/29 11:06:26;;;;;;;7.67;4.13;;;12.50;99.90;;;;;;5073135;28;20732;-75
2024/01/29 11:09:02;;;;;;;7.53;4.73;;;12.60;99.90;;;;;;5054647;28;20618;-75
2024/01/29 11:11:30;;;;;;;6.40;4.22;;;12.60;99.90;;;;;;5038463;28;20570;-75
2024/01/29 11:13:56;;;;;;;7.30;6.60;;;12.60;99.90;;;;;;5038507;28;20196;-75
2024/01/29 11:16:22;;;;;;;7.03;5.73;;;12.60;99.90;;;;;;5072064;28;20641;-76
2024/01/29 11:18:49;;;;;;;8.18;5.60;;;12.50;99.90;;;;;;5072726;28;21011;-75
2024/01/29 11:21:14;;;;;;;7.97;4.47;;;12.50;99.90;;;;;;5072932;28;20175;-75
2024/01/29 11:23:46;;;;;;;6.20;4.60;;;12.60;99.90;;;;;;5071650;28;20571;-75
2024/01/29 11:26:16;;;;;;;5.30;3.80;;;12.60;99.90;;;;;;5067525;28;20169;-76
2024/01/29 11:28:42;;;;;;;7.37;5.83;;;12.70;99.90;;;;;;5050214;28;20583;-76
2024/01/29 11:31:13;;;;;;;6.57;5.10;;;12.70;99.90;;;;;;5067790;28;21211;-74
2024/01/29 11:33:39;;;;;;;6.77;4.90;;;12.80;99.90;;;;;;5034301;28;20681;-73
2024/01/29 11:36:07;;;;;;;11.60;4.00;;;12.80;99.90;;;;;;5054941;28;21108;-73
2024/01/29 11:38:33;;;;;;;6.43;4.23;;;12.90;99.90;;;;;;5054476;28;20566;-73
2024/01/29 11:41:02;;;;;;;7.53;3.93;;;13.00;99.90;;;;;;5054115;28;21455;-73
2024/01/29 11:43:28;;;;;;;5.87;3.93;;;13.10;99.90;;;;;;5072511;28;20180;-73
2024/01/29 11:45:54;;;;;;;8.00;5.40;;;13.20;99.90;;;;;;5072445;28;20693;-74
2024/01/29 11:48:26;;;;;;;7.43;4.97;;;13.30;99.90;;;;;;5067319;28;20188;-74
2024/01/29 11:50:53;;;;;;;5.93;4.20;;;13.30;99.90;;;;;;5034104;28;20643;-74
2024/01/29 11:53:23;;;;;;;7.90;6.00;;;13.40;99.90;;;;;;5050686;28;21313;-75
2024/01/29 11:55:49;;;;;;;4.90;4.00;;;13.40;99.90;;;;;;5033924;28;20610;-74
2024/01/29 11:58:19;;;;;;;10.73;5.13;;;13.50;99.90;;;;;;5069810;28;20981;-75
2024/01/29 12:00:46;;;;;;;6.20;4.57;;;13.60;99.90;;;;;;5053936;28;20627;-75
2024/01/29 12:03:17;;;;;;;5.47;4.47;;;13.60;99.90;;;;;;5071441;28;20610;-75
2024/01/29 12:05:44;;;;;;;6.17;4.30;;;13.70;99.90;;;;;;5070988;28;20598;-75
2024/01/29 12:08:14;;;;;;;7.60;4.47;;;13.70;99.90;;;;;;5059634;28;20579;-75
2024/01/29 12:10:41;;;;;;;6.10;3.93;;;13.80;99.90;;;;;;5069540;28;20714;-76
2024/01/29 12:13:19;;;;;;;6.80;4.33;;;13.90;99.90;;;;;;5071909;28;20640;-76
2024/01/29 12:15:46;;;;;;;5.23;3.73;;;13.90;99.90;;;;;;5054308;28;21112;-76
2024/01/29 12:18:20;;;;;;;6.97;3.97;;;13.90;99.90;;;;;;5053586;28;20585;-76
2024/01/29 12:20:47;;;;;;;7.00;3.93;;;13.90;99.90;;;;;;5049401;28;20702;-76
2024/01/29 12:23:16;;;;;;;5.33;4.40;;;13.90;99.90;;;;;;5053040;28;20609;-76
2024/01/29 12:25:44;;;;;;;7.40;4.53;;;13.90;99.90;;;;;;5071334;28;20594;-76
2024/01/29 12:28:11;;;;;;;5.60;3.83;;;14.00;99.90;;;;;;5058186;28;21298;-76
2024/01/29 12:30:39;;;;;;;5.20;3.87;;;14.10;99.90;;;;;;5047550;28;20606;-76
2024/01/29 12:33:09;;;;;;;6.90;3.63;;;14.10;99.90;;;;;;5053094;28;20640;-76
2024/01/29 12:35:36;;;;;;;5.77;4.43;;;14.10;99.90;;;;;;5053520;28;20586;-75
2024/01/29 12:38:11;;;;;;;5.20;3.90;;;14.10;99.90;;;;;;5053269;28;20945;-76
2024/01/29 12:40:39;;;;;;;7.13;3.90;;;14.10;99.90;;;;;;5070915;28;20633;-77
2024/01/29 12:43:06;;;;;;;7.10;3.30;;;14.20;99.90;;;;;;5071266;28;20605;-75
2024/01/29 12:45:33;;;;;;;6.83;3.93;;;14.20;99.90;;;;;;5053368;28;20605;-76
2024/01/29 12:48:19;;;;;;;4.27;3.60;;;14.30;99.90;;;;;;5062647;28;20594;-75
2024/01/29 12:50:45;;;;;;;5.80;3.90;;;14.30;99.90;;;;;;5048048;28;20619;-76